Akeley, Minnesota
Current Conditions -  °F | °C
As of 2:35 AM on Monday 22 Dec 2014 (Local Time) from KY49 Reporting Station
Haze Haze  
Wind Chill: 27°   Ceiling: 200
Heat Index: 33°   Visibility: 2.5mi
Dew Point: 33°   Wind: 7mph
Humidity: 99%   Direction: 120°ESE
Pressure: 29.59"   Gusts: NA
Location:  47°N, 94.73°W
Report Text: KY49 220835Z AUTO 12006KT 2 1/2SM BR OVC002 01/00 A2959 RMK AO2 T00050003
Loading
Personal Weather Stations






























Interactive Weather Map New forecast layout! Learn more

10-Day Weather Forecast

Advertisements
Track Severe Weather on mobile